Ramona, California
Current Conditions -  °F | °C
As of 11:53 AM on Thursday 30 Oct 2014 (Local Time) from KRNM Reporting Station
Clear Clear  
Wind Chill: 79°   Ceiling: Unl
Heat Index: 79°   Visibility: 10mi
Dew Point: 37°   Wind: 5mph
Humidity: 22%   Direction: 180°S
Pressure: 30.01"   Gusts: NA
Location:  33.04°N, 116.86°W
Report Text: KRNM 301853Z 18004KT 10SM CLR 26/03 A3001 RMK AO2 SLP150 T02610028
Loading
Personal Weather Stations






























Interactive Weather Map
Tropical Storm Tracking
New forecast layout! Learn more

10-Day Weather Forecast

Advertisements
Track Severe Weather on mobile